createdAt,value
2022-08-09T00:00:31.837Z,16.62
2022-08-09T00:01:10.642Z,16.59
2022-08-09T00:01:55.214Z,16.58
2022-08-09T00:02:27.038Z,16.58
2022-08-09T00:02:58.452Z,16.59
2022-08-09T00:04:03.549Z,16.61
2022-08-09T00:04:33.919Z,16.60
2022-08-09T00:06:18.145Z,16.59
2022-08-09T00:06:22.569Z,16.60
2022-08-09T00:06:50.107Z,16.57
2022-08-09T00:07:21.483Z,16.57
2022-08-09T00:07:54.321Z,16.56
2022-08-09T00:08:31.863Z,16.54
2022-08-09T00:09:04.360Z,16.55
2022-08-09T00:09:37.058Z,16.56
2022-08-09T00:10:08.868Z,16.56
2022-08-09T00:10:49.637Z,16.56
2022-08-09T00:11:24.821Z,16.56
2022-08-09T00:12:04.369Z,16.56
2022-08-09T00:12:36.435Z,16.54
2022-08-09T00:13:16.867Z,16.54
2022-08-09T00:13:50.185Z,16.53
2022-08-09T00:14:36.230Z,16.52
2022-08-09T00:16:26.358Z,16.47
2022-08-09T00:17:08.297Z,16.47
2022-08-09T00:18:06.092Z,16.46
2022-08-09T00:18:34.729Z,16.46
2022-08-09T00:19:10.099Z,16.44
2022-08-09T00:19:41.980Z,16.40
2022-08-09T00:20:19.555Z,16.43
2022-08-09T00:20:50.945Z,16.41
2022-08-09T00:21:22.740Z,16.40
2022-08-09T00:21:55.827Z,16.38
2022-08-09T00:22:35.045Z,16.41
2022-08-09T00:23:56.330Z,16.40
2022-08-09T00:23:59.975Z,16.36
2022-08-09T00:24:32.318Z,16.38
2022-08-09T00:25:04.112Z,16.36
2022-08-09T00:25:41.486Z,16.37
2022-08-09T00:26:15.551Z,16.35
2022-08-09T00:26:46.896Z,16.35
2022-08-09T00:27:20.272Z,16.33
2022-08-09T00:27:52.771Z,16.35
2022-08-09T00:28:26.473Z,16.33
2022-08-09T00:28:59.349Z,16.35
2022-08-09T00:30:10.381Z,16.33
2022-08-09T00:30:26.172Z,16.34
2022-08-09T00:30:58.484Z,16.33
2022-08-09T00:32:00.921Z,16.32
2022-08-09T00:32:27.079Z,16.30
2022-08-09T00:32:59.047Z,16.28
2022-08-09T00:33:49.044Z,16.27
2022-08-09T00:34:22.049Z,16.26
2022-08-09T00:34:58.582Z,16.26
2022-08-09T00:35:43.411Z,16.25
2022-08-09T00:36:15.339Z,16.22
2022-08-09T00:36:48.792Z,16.23
2022-08-09T00:37:20.514Z,16.22
2022-08-09T00:37:51.963Z,16.21
2022-08-09T00:38:44.525Z,16.22
2022-08-09T00:40:08.965Z,16.22
2022-08-09T00:40:16.841Z,16.20
2022-08-09T00:40:52.421Z,16.19
2022-08-09T00:44:14.505Z,16.14
2022-08-09T00:44:16.199Z,16.16
2022-08-09T00:44:17.148Z,16.17
2022-08-09T00:44:19.576Z,16.19
2022-08-09T00:44:50.741Z,16.10
2022-08-09T00:45:25.015Z,16.10
2022-08-09T00:45:57.120Z,16.10
2022-08-09T00:46:55.965Z,16.08
2022-08-09T00:47:24.808Z,16.09
2022-08-09T00:47:56.790Z,16.07
2022-08-09T00:48:28.165Z,16.07
2022-08-09T00:49:00.107Z,16.08
2022-08-09T00:49:36.833Z,16.07
2022-08-09T00:50:14.601Z,16.08
2022-08-09T00:50:46.406Z,16.11
2022-08-09T00:51:23.906Z,16.11
2022-08-09T00:51:57.664Z,16.08
2022-08-09T00:52:34.400Z,16.09
2022-08-09T00:53:10.409Z,16.11
2022-08-09T00:53:45.258Z,16.10
2022-08-09T00:54:18.068Z,16.09
2022-08-09T00:54:51.248Z,16.07
2022-08-09T00:56:03.991Z,16.09
2022-08-09T00:56:16.699Z,16.08
2022-08-09T00:56:48.393Z,16.08
2022-08-09T00:57:24.677Z,16.07
2022-08-09T00:58:05.938Z,16.07
2022-08-09T00:58:40.398Z,16.06
2022-08-09T00:59:41.540Z,16.06
2022-08-09T01:00:21.029Z,16.03
2022-08-09T01:00:55.822Z,16.01
2022-08-09T01:02:29.459Z,16.02
2022-08-09T01:03:31.127Z,16.03
2022-08-09T01:04:19.380Z,16.02
2022-08-09T01:05:03.579Z,16.00
2022-08-09T01:05:54.282Z,15.98
2022-08-09T01:07:59.914Z,15.96
2022-08-09T01:08:40.541Z,15.94
2022-08-09T01:09:39.451Z,15.93
2022-08-09T01:10:25.827Z,15.92
2022-08-09T01:12:34.277Z,15.89
2022-08-09T01:13:59.453Z,15.88
2022-08-09T01:14:52.740Z,15.86
2022-08-09T01:15:31.448Z,15.84
2022-08-09T01:16:12.889Z,15.83
2022-08-09T01:16:47.173Z,15.82
2022-08-09T01:18:29.766Z,15.80
2022-08-09T01:19:39.639Z,15.81
2022-08-09T01:20:24.664Z,15.81
2022-08-09T01:21:19.311Z,15.79
2022-08-09T01:22:16.904Z,15.76
2022-08-09T01:24:00.849Z,15.76
2022-08-09T01:24:16.133Z,15.75
2022-08-09T01:25:21.909Z,15.73
2022-08-09T01:26:15.193Z,15.71
2022-08-09T01:26:57.919Z,15.71
2022-08-09T01:27:32.016Z,15.69
2022-08-09T01:28:06.945Z,15.70
2022-08-09T01:28:45.867Z,15.68
2022-08-09T01:29:22.917Z,15.69
2022-08-09T01:30:02.705Z,15.70
2022-08-09T01:30:52.506Z,15.69
2022-08-09T01:32:30.157Z,15.70
2022-08-09T01:32:31.325Z,15.70
2022-08-09T01:33:09.952Z,15.70
2022-08-09T01:33:46.203Z,15.69
2022-08-09T01:34:21.428Z,15.68
2022-08-09T01:35:46.711Z,15.66
2022-08-09T01:36:26.664Z,15.63
2022-08-09T01:37:02.103Z,15.64
2022-08-09T01:37:42.884Z,15.63
2022-08-09T01:38:30.675Z,15.63
2022-08-09T01:39:02.607Z,15.63
2022-08-09T01:39:38.672Z,15.61
2022-08-09T01:40:31.916Z,15.60
2022-08-09T01:41:13.098Z,15.61
2022-08-09T01:41:55.598Z,15.59
2022-08-09T01:42:35.128Z,15.60
2022-08-09T01:43:08.775Z,15.59
2022-08-09T01:43:50.763Z,15.58
2022-08-09T01:44:24.439Z,15.59
2022-08-09T01:44:57.284Z,15.58
2022-08-09T01:45:32.376Z,15.57
2022-08-09T01:46:54.735Z,15.57
2022-08-09T01:48:19.284Z,15.55
2022-08-09T01:49:10.689Z,15.53
2022-08-09T01:49:48.782Z,15.53
2022-08-09T01:50:30.041Z,15.53
2022-08-09T01:51:10.025Z,15.53
2022-08-09T01:51:54.183Z,15.52
2022-08-09T01:52:26.949Z,15.52
2022-08-09T01:53:02.364Z,15.51
2022-08-09T01:53:54.564Z,15.51
2022-08-09T01:54:38.068Z,15.49
2022-08-09T01:55:11.509Z,15.49
2022-08-09T01:55:46.672Z,15.49
2022-08-09T01:56:20.123Z,15.48
2022-08-09T01:56:52.521Z,15.48
2022-08-09T01:58:30.069Z,15.47
2022-08-09T01:59:05.963Z,15.45
2022-08-09T01:59:50.907Z,15.46
2022-08-09T02:00:34.889Z,15.47
2022-08-09T02:01:09.677Z,15.47
2022-08-09T02:02:00.164Z,15.46
2022-08-09T02:02:36.859Z,15.44
2022-08-09T02:03:13.651Z,15.43
2022-08-09T02:03:47.329Z,15.41
2022-08-09T02:04:21.073Z,15.39
2022-08-09T02:04:54.952Z,15.38
2022-08-09T02:05:37.654Z,15.39
2022-08-09T02:06:17.385Z,15.38
2022-08-09T02:07:08.666Z,15.37
2022-08-09T02:08:40.230Z,15.37
2022-08-09T02:08:57.907Z,15.36
2022-08-09T02:09:41.939Z,15.36
2022-08-09T02:10:20.161Z,15.36
2022-08-09T02:11:17.126Z,15.35
2022-08-09T02:11:49.314Z,15.37
2022-08-09T02:12:23.796Z,15.38
2022-08-09T02:13:00.906Z,15.38
2022-08-09T02:13:40.693Z,15.38
2022-08-09T02:14:25.309Z,15.37
2022-08-09T02:15:02.016Z,15.37
2022-08-09T02:15:49.363Z,15.36
2022-08-09T02:16:33.808Z,15.36
2022-08-09T02:17:54.937Z,15.29
2022-08-09T02:18:10.930Z,15.31
2022-08-09T02:18:47.674Z,15.30
2022-08-09T02:19:20.019Z,15.30
2022-08-09T02:19:52.312Z,15.29
2022-08-09T02:20:26.642Z,15.31
2022-08-09T02:21:11.644Z,15.30
2022-08-09T02:21:57.747Z,15.31
2022-08-09T02:22:38.046Z,15.30
2022-08-09T02:23:17.289Z,15.28
2022-08-09T02:23:57.468Z,15.28
2022-08-09T02:24:35.439Z,15.29
2022-08-09T02:25:21.079Z,15.30
2022-08-09T02:25:59.185Z,15.27
2022-08-09T02:26:34.936Z,15.28
2022-08-09T02:27:09.680Z,15.26
2022-08-09T02:28:00.669Z,15.26
2022-08-09T02:28:47.015Z,15.26
2022-08-09T02:29:29.266Z,15.25
2022-08-09T02:30:06.037Z,15.24
2022-08-09T02:30:55.012Z,15.24
2022-08-09T02:31:38.696Z,15.23
2022-08-09T02:32:12.324Z,15.20
2022-08-09T02:32:47.409Z,15.21
2022-08-09T02:33:38.384Z,15.20
2022-08-09T02:34:25.912Z,15.18
2022-08-09T02:35:23.071Z,15.17
2022-08-09T02:36:35.298Z,15.17
2022-08-09T02:37:14.145Z,15.15
2022-08-09T02:37:47.473Z,15.15
2022-08-09T02:38:28.814Z,15.13
2022-08-09T02:39:06.937Z,15.13
2022-08-09T02:39:55.330Z,15.13
2022-08-09T02:40:36.798Z,15.11
2022-08-09T02:41:12.473Z,15.12
2022-08-09T02:41:49.467Z,15.10
2022-08-09T02:42:27.781Z,15.10
2022-08-09T02:43:02.769Z,15.11
2022-08-09T02:43:53.450Z,15.10
2022-08-09T02:44:31.233Z,15.10
2022-08-09T02:45:07.470Z,15.07
2022-08-09T02:45:45.437Z,15.06
2022-08-09T02:46:21.886Z,15.07
2022-08-09T02:46:57.963Z,15.04
2022-08-09T02:47:33.752Z,15.07
2022-08-09T02:48:12.250Z,15.06
2022-08-09T02:48:53.923Z,15.06
2022-08-09T02:49:27.149Z,15.07
2022-08-09T02:50:14.531Z,15.05
2022-08-09T02:50:53.094Z,15.06
2022-08-09T02:51:33.056Z,15.04
2022-08-09T02:52:14.979Z,15.03
2022-08-09T02:52:49.640Z,15.03
2022-08-09T02:54:21.916Z,15.02
2022-08-09T02:54:57.242Z,15.02
2022-08-09T02:55:46.318Z,15.02
2022-08-09T02:56:19.993Z,15.02
2022-08-09T02:56:57.076Z,15.01
2022-08-09T02:57:30.793Z,15.02
2022-08-09T02:58:35.728Z,15.00
2022-08-09T02:59:09.081Z,15.01
2022-08-09T03:00:20.663Z,15.01
2022-08-09T03:00:34.162Z,15.00
2022-08-09T03:01:15.189Z,14.98
2022-08-09T03:02:06.024Z,14.96
2022-08-09T03:02:58.504Z,14.96
2022-08-09T03:04:12.823Z,14.94
2022-08-09T03:04:28.940Z,14.93
2022-08-09T03:05:02.596Z,14.92
2022-08-09T03:05:37.877Z,14.93
2022-08-09T03:07:12.343Z,14.92
2022-08-09T03:07:55.064Z,14.93
2022-08-09T03:08:28.997Z,14.93
2022-08-09T03:09:03.890Z,14.90
2022-08-09T03:09:36.256Z,14.91
2022-08-09T03:10:15.883Z,14.91
2022-08-09T03:10:50.897Z,14.89
2022-08-09T03:12:04.896Z,14.89
2022-08-09T03:12:17.467Z,14.90
2022-08-09T03:12:52.103Z,14.90
2022-08-09T03:13:26.061Z,14.88
2022-08-09T03:14:36.537Z,14.87
2022-08-09T03:15:09.629Z,14.85
2022-08-09T03:16:50.056Z,14.81
2022-08-09T03:17:26.974Z,14.80
2022-08-09T03:18:00.163Z,14.79
2022-08-09T03:18:31.815Z,14.80
2022-08-09T03:19:04.036Z,14.79
2022-08-09T03:19:59.035Z,14.78
2022-08-09T03:20:37.829Z,14.80
2022-08-09T03:21:11.048Z,14.80
2022-08-09T03:22:42.058Z,14.80
2022-08-09T03:23:24.395Z,14.80
2022-08-09T03:24:14.908Z,14.79
2022-08-09T03:25:06.234Z,14.80
2022-08-09T03:26:02.229Z,14.79
2022-08-09T03:26:37.334Z,14.78
2022-08-09T03:27:17.358Z,14.77
2022-08-09T03:27:55.208Z,14.77
2022-08-09T03:28:28.091Z,14.76
2022-08-09T03:29:02.070Z,14.74
2022-08-09T03:29:57.580Z,14.76
2022-08-09T03:30:36.866Z,14.77
2022-08-09T03:31:10.512Z,14.75
2022-08-09T03:31:59.524Z,14.76
2022-08-09T03:32:37.173Z,14.75
2022-08-09T03:33:13.087Z,14.74
2022-08-09T03:33:53.509Z,14.77
2022-08-09T03:34:26.668Z,14.74
2022-08-09T03:34:59.758Z,14.74
2022-08-09T03:36:11.736Z,14.72
2022-08-09T03:36:27.697Z,14.73
2022-08-09T03:37:02.491Z,14.71
2022-08-09T03:37:55.709Z,14.72
2022-08-09T03:38:30.671Z,14.72
2022-08-09T03:39:03.320Z,14.70
2022-08-09T03:39:37.977Z,14.70
2022-08-09T03:40:13.044Z,14.70
2022-08-09T03:41:03.775Z,14.70
2022-08-09T03:41:45.880Z,14.70
2022-08-09T03:42:20.170Z,14.69
2022-08-09T03:43:00.285Z,14.67
2022-08-09T03:44:03.660Z,14.66
2022-08-09T03:44:40.027Z,14.64
2022-08-09T03:45:11.738Z,14.64
2022-08-09T03:46:04.814Z,14.64
2022-08-09T03:46:36.136Z,14.66
2022-08-09T03:47:08.083Z,14.64
2022-08-09T03:47:44.150Z,14.63
2022-08-09T03:48:30.761Z,14.63
2022-08-09T03:49:07.850Z,14.63
2022-08-09T03:49:41.877Z,14.64
2022-08-09T03:50:32.154Z,14.62
2022-08-09T03:51:07.164Z,14.63
2022-08-09T03:52:03.475Z,14.62
2022-08-09T03:52:38.586Z,14.62
2022-08-09T03:53:11.109Z,14.63
2022-08-09T03:53:43.677Z,14.63
2022-08-09T03:54:18.569Z,14.63
2022-08-09T03:55:07.650Z,14.64
2022-08-09T03:55:42.358Z,14.62
2022-08-09T03:56:14.030Z,14.62
2022-08-09T03:56:46.711Z,14.62
2022-08-09T03:57:20.931Z,14.60
2022-08-09T03:58:06.478Z,14.61
2022-08-09T03:58:45.467Z,14.60
2022-08-09T03:59:27.434Z,14.60
2022-08-09T04:00:09.697Z,14.58
2022-08-09T04:00:42.559Z,14.59
2022-08-09T04:01:14.082Z,14.57
2022-08-09T04:01:48.847Z,14.56
2022-08-09T04:02:27.244Z,14.58
2022-08-09T04:02:59.469Z,14.58
2022-08-09T04:03:45.802Z,14.58
2022-08-09T04:04:18.283Z,14.57
2022-08-09T04:04:49.881Z,14.54
2022-08-09T04:05:27.956Z,14.56
2022-08-09T04:05:59.591Z,14.55
2022-08-09T04:06:31.020Z,14.55
2022-08-09T04:07:04.159Z,14.53
2022-08-09T04:07:53.264Z,14.54
2022-08-09T04:08:29.050Z,14.52
2022-08-09T04:09:03.640Z,14.52
2022-08-09T04:09:55.049Z,14.51
2022-08-09T04:10:29.719Z,14.49
2022-08-09T04:11:02.109Z,14.48
2022-08-09T04:12:02.821Z,14.49
2022-08-09T04:12:44.629Z,14.48
2022-08-09T04:13:18.621Z,14.45
2022-08-09T04:14:37.397Z,14.42
2022-08-09T04:14:59.196Z,14.46
2022-08-09T04:16:17.234Z,14.44
2022-08-09T04:16:24.925Z,14.43
2022-08-09T04:16:57.375Z,14.43
2022-08-09T04:17:29.372Z,14.43
2022-08-09T04:18:01.725Z,14.45
2022-08-09T04:18:33.080Z,14.44
2022-08-09T04:19:04.916Z,14.45
2022-08-09T04:19:51.577Z,14.45
2022-08-09T04:20:46.931Z,14.45
2022-08-09T04:21:19.232Z,14.45
2022-08-09T04:21:50.632Z,14.43
2022-08-09T04:22:24.293Z,14.41
2022-08-09T04:22:59.652Z,14.42
2022-08-09T04:23:31.120Z,14.42
2022-08-09T04:24:02.728Z,14.42
2022-08-09T04:24:34.131Z,14.42
2022-08-09T04:25:06.944Z,14.45
2022-08-09T04:25:39.570Z,14.43
2022-08-09T04:26:11.356Z,14.41
2022-08-09T04:26:42.961Z,14.43
2022-08-09T04:27:14.340Z,14.45
2022-08-09T04:27:46.653Z,14.42
2022-08-09T04:28:34.121Z,14.43
2022-08-09T04:29:12.135Z,14.41
2022-08-09T04:29:50.070Z,14.41
2022-08-09T04:30:23.515Z,14.41
2022-08-09T04:31:00.153Z,14.41
2022-08-09T04:31:46.898Z,14.40
2022-08-09T04:32:31.350Z,14.42
2022-08-09T04:33:05.268Z,14.41
2022-08-09T04:33:51.800Z,14.40
2022-08-09T04:34:30.781Z,14.39
2022-08-09T04:35:03.599Z,14.38
2022-08-09T04:35:35.424Z,14.37
2022-08-09T04:36:07.171Z,14.37
2022-08-09T04:36:41.326Z,14.38
2022-08-09T04:37:21.580Z,14.38
2022-08-09T04:37:52.930Z,14.36
2022-08-09T04:38:24.865Z,14.38
2022-08-09T04:39:00.522Z,14.38
2022-08-09T04:39:33.240Z,14.37
2022-08-09T04:40:19.292Z,14.37
2022-08-09T04:41:00.751Z,14.38
2022-08-09T04:41:33.772Z,14.38
2022-08-09T04:42:15.833Z,14.37
2022-08-09T04:42:49.860Z,14.37
2022-08-09T04:43:22.136Z,14.37
2022-08-09T04:44:07.197Z,14.39
2022-08-09T04:44:49.287Z,14.37
2022-08-09T04:45:20.922Z,14.38
2022-08-09T04:45:55.018Z,14.38
2022-08-09T04:46:57.078Z,14.36
2022-08-09T04:47:17.904Z,14.36
2022-08-09T04:47:59.439Z,14.34
2022-08-09T04:48:33.763Z,14.36
2022-08-09T04:49:05.159Z,14.34
2022-08-09T04:49:53.118Z,14.36
2022-08-09T04:50:34.973Z,14.37
2022-08-09T04:51:09.907Z,14.37
2022-08-09T04:51:41.232Z,14.38
2022-08-09T04:52:18.525Z,14.37
2022-08-09T04:52:57.684Z,14.34
2022-08-09T04:53:31.538Z,14.34
2022-08-09T04:54:52.415Z,14.36
2022-08-09T04:55:23.775Z,14.35
2022-08-09T04:55:58.916Z,14.35
2022-08-09T04:56:31.010Z,14.36
2022-08-09T04:57:54.307Z,14.38
2022-08-09T04:58:31.792Z,14.39
2022-08-09T04:59:07.984Z,14.40
2022-08-09T04:59:47.466Z,14.38
2022-08-09T05:00:22.280Z,14.37
2022-08-09T05:00:55.517Z,14.39
2022-08-09T05:01:26.948Z,14.39
2022-08-09T05:01:58.672Z,14.40
2022-08-09T05:02:34.748Z,14.41
2022-08-09T05:03:30.558Z,14.41
2022-08-09T05:03:58.589Z,14.41
2022-08-09T05:04:31.057Z,14.40
2022-08-09T05:05:04.223Z,14.42
2022-08-09T05:05:52.004Z,14.41
2022-08-09T05:06:27.517Z,14.41
2022-08-09T05:07:00.553Z,14.42
2022-08-09T05:07:32.253Z,14.43
2022-08-09T05:08:04.070Z,14.43
2022-08-09T05:08:35.558Z,14.46
2022-08-09T05:09:07.390Z,14.45
2022-08-09T05:09:45.495Z,14.43
2022-08-09T05:10:21.396Z,14.43
2022-08-09T05:10:55.056Z,14.44
2022-08-09T05:11:30.572Z,14.45
2022-08-09T05:12:04.871Z,14.43
2022-08-09T05:12:37.136Z,14.43
2022-08-09T05:13:10.864Z,14.44
2022-08-09T05:13:42.859Z,14.45
2022-08-09T05:14:14.710Z,14.44
2022-08-09T05:14:46.032Z,14.45
2022-08-09T05:15:38.524Z,14.45
2022-08-09T05:16:10.138Z,14.46
2022-08-09T05:16:43.478Z,14.46
2022-08-09T05:18:38.084Z,14.45
2022-08-09T05:18:38.647Z,14.44
2022-08-09T05:19:14.984Z,14.46
2022-08-09T05:19:46.559Z,14.47
2022-08-09T05:20:17.937Z,14.49
2022-08-09T05:20:49.296Z,14.48
2022-08-09T05:21:22.829Z,14.50
2022-08-09T05:21:56.423Z,14.51
2022-08-09T05:22:35.078Z,14.52
2022-08-09T05:23:58.609Z,14.54
2022-08-09T05:24:29.013Z,14.55
2022-08-09T05:25:50.957Z,14.53
2022-08-09T05:26:37.191Z,14.55
2022-08-09T05:27:13.997Z,14.54
2022-08-09T05:27:50.696Z,14.54
2022-08-09T05:28:40.797Z,14.56
2022-08-09T05:29:21.983Z,14.56
2022-08-09T05:29:54.068Z,14.58
2022-08-09T05:30:25.853Z,14.59
2022-08-09T05:31:01.498Z,14.60
2022-08-09T05:31:45.860Z,14.63
2022-08-09T05:32:19.025Z,14.64
2022-08-09T05:32:53.144Z,14.64
2022-08-09T05:33:26.461Z,14.65
2022-08-09T05:34:04.383Z,14.66
2022-08-09T05:34:35.730Z,14.67
2022-08-09T05:35:07.539Z,14.68
2022-08-09T05:35:39.129Z,14.69
2022-08-09T05:36:18.388Z,14.70
2022-08-09T05:36:52.495Z,14.70
2022-08-09T05:37:25.191Z,14.69
2022-08-09T05:37:57.159Z,14.70
2022-08-09T05:38:30.582Z,14.70
2022-08-09T05:39:02.570Z,14.71
2022-08-09T05:39:43.911Z,14.68
2022-08-09T05:40:34.426Z,14.71
2022-08-09T05:41:06.061Z,14.71
2022-08-09T05:41:44.054Z,14.71
2022-08-09T05:42:17.793Z,14.72
2022-08-09T05:42:54.248Z,14.72
2022-08-09T05:43:28.978Z,14.72
2022-08-09T05:44:03.556Z,14.73
2022-08-09T05:44:36.838Z,14.74
2022-08-09T05:45:10.475Z,14.74
2022-08-09T05:45:55.918Z,14.75
2022-08-09T05:46:28.589Z,14.77
2022-08-09T05:47:00.687Z,14.79
2022-08-09T05:47:53.061Z,14.80
2022-08-09T05:48:33.213Z,14.83
2022-08-09T05:49:07.334Z,14.82
2022-08-09T05:50:25.593Z,14.82
2022-08-09T05:51:42.612Z,14.84
2022-08-09T05:52:17.144Z,14.86
2022-08-09T05:52:53.683Z,14.88
2022-08-09T05:53:32.060Z,14.88
2022-08-09T05:54:05.522Z,14.90
2022-08-09T05:54:37.604Z,14.92
2022-08-09T05:55:20.368Z,14.93
2022-08-09T05:55:53.456Z,14.95
2022-08-09T05:56:27.095Z,14.96
2022-08-09T05:56:59.195Z,14.97
2022-08-09T05:57:50.455Z,14.97
2022-08-09T05:58:22.044Z,14.96
2022-08-09T05:58:59.567Z,14.97
2022-08-09T05:59:30.901Z,14.97
2022-08-09T06:00:03.195Z,14.98
2022-08-09T06:00:38.977Z,14.99
2022-08-09T06:01:10.880Z,15.00
2022-08-09T06:01:47.864Z,15.00
2022-08-09T06:02:19.808Z,15.01
2022-08-09T06:02:56.922Z,15.01
2022-08-09T06:03:34.829Z,15.03
2022-08-09T06:04:34.761Z,15.05
2022-08-09T06:05:08.528Z,15.05
2022-08-09T06:05:54.608Z,15.07
2022-08-09T06:06:29.260Z,15.08
2022-08-09T06:07:00.575Z,15.10
2022-08-09T06:07:32.579Z,15.11
2022-08-09T06:08:05.189Z,15.12
2022-08-09T06:08:39.574Z,15.13
2022-08-09T06:09:40.698Z,15.13
2022-08-09T06:10:03.239Z,15.15
2022-08-09T06:10:40.622Z,15.16
2022-08-09T06:11:16.827Z,15.17
2022-08-09T06:11:57.288Z,15.17
2022-08-09T06:12:29.617Z,15.20
2022-08-09T06:13:11.853Z,15.23
2022-08-09T06:14:52.308Z,15.27
2022-08-09T06:15:24.072Z,15.28
2022-08-09T06:15:58.025Z,15.30
2022-08-09T06:16:31.364Z,15.31
2022-08-09T06:17:09.187Z,15.32
2022-08-09T06:17:40.936Z,15.33
2022-08-09T06:18:12.341Z,15.33
2022-08-09T06:19:33.801Z,15.33
2022-08-09T06:20:05.676Z,15.35
2022-08-09T06:20:37.739Z,15.35
2022-08-09T06:21:09.126Z,15.36
2022-08-09T06:21:51.615Z,15.36
2022-08-09T06:22:30.465Z,15.38
2022-08-09T06:23:01.877Z,15.38
2022-08-09T06:23:55.198Z,15.39
2022-08-09T06:24:27.208Z,15.43
2022-08-09T06:24:58.583Z,15.46
2022-08-09T06:25:30.788Z,15.48
2022-08-09T06:26:02.269Z,15.49
2022-08-09T06:26:34.770Z,15.50
2022-08-09T06:27:06.127Z,15.51
2022-08-09T06:27:41.312Z,15.52
2022-08-09T06:29:05.050Z,15.54
2022-08-09T06:29:48.156Z,15.56
2022-08-09T06:30:28.907Z,15.57
2022-08-09T06:31:00.544Z,15.57
2022-08-09T06:31:39.665Z,15.58
2022-08-09T06:33:13.539Z,15.59
2022-08-09T06:33:40.098Z,15.61
2022-08-09T06:34:07.463Z,15.64
2022-08-09T06:34:38.898Z,15.67
2022-08-09T06:35:11.122Z,15.67
2022-08-09T06:35:57.167Z,15.66
2022-08-09T06:36:29.981Z,15.67
2022-08-09T06:37:01.703Z,15.68
2022-08-09T06:37:33.145Z,15.70
2022-08-09T06:38:36.327Z,15.71
2022-08-09T06:39:11.381Z,15.73
2022-08-09T06:39:58.219Z,15.73
2022-08-09T06:40:32.299Z,15.77
2022-08-09T06:41:18.088Z,15.79
2022-08-09T06:42:08.742Z,15.81
2022-08-09T06:42:45.124Z,15.83
2022-08-09T06:43:18.288Z,15.84
2022-08-09T06:43:50.505Z,15.86
2022-08-09T06:44:24.600Z,15.89
2022-08-09T06:44:59.287Z,15.91
2022-08-09T06:46:06.555Z,15.94
2022-08-09T06:46:39.690Z,15.97
2022-08-09T06:47:11.818Z,16.00
2022-08-09T06:47:44.372Z,16.02
2022-08-09T06:48:16.581Z,16.05
2022-08-09T06:48:48.199Z,16.06
2022-08-09T06:49:29.121Z,16.09
2022-08-09T06:50:16.807Z,16.11
2022-08-09T06:50:50.709Z,16.12
2022-08-09T06:51:22.172Z,16.14
2022-08-09T06:52:12.178Z,16.16
2022-08-09T06:52:48.897Z,16.17
2022-08-09T06:54:09.396Z,16.18
2022-08-09T06:56:30.976Z,16.22
2022-08-09T06:57:03.146Z,16.26
2022-08-09T06:58:01.771Z,16.27
2022-08-09T06:58:40.913Z,16.29
2022-08-09T07:00:49.124Z,16.31
2022-08-09T07:00:50.247Z,16.33
2022-08-09T07:01:01.663Z,16.35
2022-08-09T07:01:54.763Z,16.37
2022-08-09T07:02:30.843Z,16.38
2022-08-09T07:03:06.080Z,16.38
2022-08-09T07:03:39.750Z,16.42
2022-08-09T07:04:24.762Z,16.44
2022-08-09T07:04:58.495Z,16.46
2022-08-09T07:06:02.935Z,16.48
2022-08-09T07:06:22.822Z,16.51
2022-08-09T07:07:00.347Z,16.53
2022-08-09T07:07:59.571Z,16.56
2022-08-09T07:08:24.839Z,16.60
2022-08-09T07:08:56.533Z,16.63
2022-08-09T07:09:55.276Z,16.64
2022-08-09T07:10:29.514Z,16.66
2022-08-09T07:11:03.355Z,16.68
2022-08-09T07:11:53.735Z,16.69
2022-08-09T07:12:38.074Z,16.73
2022-08-09T07:13:27.674Z,16.74
2022-08-09T07:14:26.434Z,16.77
2022-08-09T07:14:58.145Z,16.81
2022-08-09T07:16:38.930Z,16.82
2022-08-09T07:16:41.165Z,16.83
2022-08-09T07:17:18.105Z,16.86
2022-08-09T07:17:52.625Z,16.87
2022-08-09T07:18:27.769Z,16.88
2022-08-09T07:19:02.764Z,16.89
2022-08-09T07:19:35.303Z,16.91
2022-08-09T07:20:08.118Z,16.95
2022-08-09T07:20:39.674Z,16.95
2022-08-09T07:21:14.905Z,16.96
2022-08-09T07:21:55.861Z,16.99
2022-08-09T07:22:43.801Z,17.01
2022-08-09T07:23:21.092Z,17.02
2022-08-09T07:23:57.907Z,17.05
2022-08-09T07:24:40.099Z,17.08
2022-08-09T07:25:12.679Z,17.10
2022-08-09T07:25:52.440Z,17.13
2022-08-09T07:26:34.233Z,17.17
2022-08-09T07:27:24.030Z,17.20
2022-08-09T07:27:58.851Z,17.24
2022-08-09T07:28:36.207Z,17.27
2022-08-09T07:29:30.841Z,17.31
2022-08-09T07:30:14.444Z,17.33
2022-08-09T07:30:45.769Z,17.39
2022-08-09T07:31:17.138Z,17.40
2022-08-09T07:31:48.481Z,17.45
2022-08-09T07:32:20.373Z,17.47
2022-08-09T07:32:54.748Z,17.50
2022-08-09T07:33:26.632Z,17.51
2022-08-09T07:34:20.226Z,17.53
2022-08-09T07:34:52.823Z,17.55
2022-08-09T07:35:53.915Z,17.55
2022-08-09T07:36:26.099Z,17.57
2022-08-09T07:36:57.588Z,17.58
2022-08-09T07:37:43.470Z,17.59
2022-08-09T07:38:16.201Z,17.59
2022-08-09T07:38:56.606Z,17.61
2022-08-09T07:39:42.220Z,17.65
2022-08-09T07:40:16.957Z,17.70
2022-08-09T07:41:08.388Z,17.72
2022-08-09T07:41:40.912Z,17.77
2022-08-09T07:42:12.470Z,17.78
2022-08-09T07:43:00.149Z,17.82
2022-08-09T07:43:31.771Z,17.83
2022-08-09T07:44:13.132Z,17.86
2022-08-09T07:44:53.125Z,17.89
2022-08-09T07:45:39.710Z,17.90
2022-08-09T07:46:11.945Z,17.98
2022-08-09T07:46:50.650Z,18.01
2022-08-09T07:47:23.603Z,18.01
2022-08-09T07:48:04.077Z,18.04
2022-08-09T07:48:36.168Z,18.07
2022-08-09T07:49:15.430Z,18.05
2022-08-09T07:50:05.549Z,18.07
2022-08-09T07:50:40.677Z,18.08
2022-08-09T07:52:05.013Z,18.10
2022-08-09T07:52:17.293Z,18.14
2022-08-09T07:52:49.886Z,18.16
2022-08-09T07:53:45.131Z,18.19
2022-08-09T07:54:12.877Z,18.20
2022-08-09T07:54:45.756Z,18.21
2022-08-09T07:55:23.383Z,18.22
2022-08-09T07:56:03.341Z,18.27
2022-08-09T07:56:44.917Z,18.24
2022-08-09T07:57:21.074Z,18.27
2022-08-09T07:57:52.553Z,18.28
2022-08-09T07:58:26.153Z,18.28
2022-08-09T07:58:59.442Z,18.33
2022-08-09T07:59:34.365Z,18.32
2022-08-09T08:00:36.475Z,18.33
2022-08-09T08:01:11.258Z,18.36
2022-08-09T08:01:42.969Z,18.43
2022-08-09T08:02:24.491Z,18.44
2022-08-09T08:02:59.176Z,18.48
2022-08-09T08:03:31.804Z,18.50
2022-08-09T08:04:03.618Z,18.51
2022-08-09T08:04:42.958Z,18.52
2022-08-09T08:05:20.559Z,18.57
2022-08-09T08:05:53.866Z,18.59
2022-08-09T08:06:32.047Z,18.64
2022-08-09T08:07:15.000Z,18.65
2022-08-09T08:08:44.576Z,18.70
2022-08-09T08:09:03.917Z,18.73
2022-08-09T08:09:42.557Z,18.75
2022-08-09T08:10:27.257Z,18.78
2022-08-09T08:11:15.441Z,18.81
2022-08-09T08:12:24.317Z,18.82
2022-08-09T08:12:45.614Z,18.87
2022-08-09T08:13:18.024Z,18.91
2022-08-09T08:13:56.907Z,18.95
2022-08-09T08:14:28.940Z,18.97
2022-08-09T08:15:00.639Z,19.00
2022-08-09T08:15:51.232Z,19.02
2022-08-09T08:16:29.624Z,19.07
2022-08-09T08:17:09.092Z,19.06
2022-08-09T08:17:52.851Z,19.09
2022-08-09T08:18:25.720Z,19.11
2022-08-09T08:18:58.309Z,19.14
2022-08-09T08:19:31.337Z,19.16
2022-08-09T08:20:03.520Z,19.21
2022-08-09T08:20:44.839Z,19.23
2022-08-09T08:21:17.208Z,19.24
2022-08-09T08:21:52.604Z,19.23
2022-08-09T08:22:25.785Z,19.22
2022-08-09T08:23:21.672Z,19.25
2022-08-09T08:24:01.108Z,19.26
2022-08-09T08:24:47.223Z,19.28
2022-08-09T08:25:22.289Z,19.31
2022-08-09T08:26:13.141Z,19.37
2022-08-09T08:26:55.260Z,19.43
2022-08-09T08:27:27.679Z,19.48
2022-08-09T08:28:14.278Z,19.51
2022-08-09T08:28:46.376Z,19.51
2022-08-09T08:29:28.099Z,19.55
2022-08-09T08:29:59.852Z,19.53
2022-08-09T08:30:35.884Z,19.55
2022-08-09T08:31:13.742Z,19.57
2022-08-09T08:32:02.266Z,19.57
2022-08-09T08:32:36.273Z,19.61
2022-08-09T08:33:24.749Z,19.61
2022-08-09T08:33:56.386Z,19.61
2022-08-09T08:34:30.948Z,19.64
2022-08-09T08:35:05.626Z,19.64
2022-08-09T08:35:59.313Z,19.64
2022-08-09T08:36:30.595Z,19.70
2022-08-09T08:37:07.673Z,19.71
2022-08-09T08:37:59.458Z,19.70
2022-08-09T08:38:38.302Z,19.76
2022-08-09T08:39:12.107Z,19.81
2022-08-09T08:39:44.422Z,19.81
2022-08-09T08:40:16.164Z,19.86
2022-08-09T08:40:49.626Z,19.88
2022-08-09T08:41:22.147Z,19.91
2022-08-09T08:41:54.966Z,19.90
2022-08-09T08:42:33.779Z,19.94
2022-08-09T08:43:13.205Z,19.95
2022-08-09T08:43:45.630Z,19.96
2022-08-09T08:44:36.220Z,19.92
2022-08-09T08:45:14.050Z,19.94
2022-08-09T08:46:09.823Z,19.92